Time;durP1;ratioP1;P1;durP2;ratioP2;P2;SDS_P1;SDS_P2;PMS_P1;PMS_P2;Temp;Humidity;BMP_temperature;BMP_pressure;BME280_temperature;BME280_humidity;BME280_pressure;Samples;Min_cycle;Max_cycle;Signal;HPM_P1;HPM_P2
2021/11/17 02:26:12;;;;;;;59.13;28.58;;;;;;;6.27;100.00;101891.22;5238884;28;20028;-69
2021/11/17 02:29:20;;;;;;;55.33;29.58;;;;;;;6.44;100.00;101886.03;5238995;28;20091;-69
2021/11/17 02:32:08;;;;;;;63.95;29.83;;;;;;;6.31;100.00;101879.72;5209808;28;20040;-69
2021/11/17 02:35:12;;;;;;;58.88;29.23;;;;;;;6.24;100.00;101873.16;5238909;28;20443;-69
2021/11/17 02:38:08;;;;;;;65.15;30.80;;;;;;;6.36;100.00;101885.53;5198779;28;20079;-69
2021/11/17 02:40:56;;;;;;;65.65;31.40;;;;;;;6.35;100.00;101881.25;5240301;28;20445;-69
2021/11/17 02:44:02;;;;;;;62.45;28.92;;;;;;;6.52;100.00;101877.81;5237892;28;20439;-69
2021/11/17 02:46:52;;;;;;;60.45;28.85;;;;;;;6.33;100.00;101877.91;5238350;28;20029;-69
2021/11/17 02:49:50;;;;;;;62.05;29.10;;;;;;;6.44;100.00;101877.34;5239185;28;20498;-69
2021/11/17 02:52:27;;;;;;;59.58;29.33;;;;;;;6.47;100.00;101883.22;5201031;28;20033;-70
2021/11/17 02:55:10;;;;;;;61.30;27.67;;;;;;;6.54;100.00;101870.75;5238926;28;20040;-69
2021/11/17 02:58:05;;;;;;;56.35;27.73;;;;;;;6.53;100.00;101893.34;5237261;28;20724;-69
2021/11/17 03:00:48;;;;;;;56.50;27.95;;;;;;;6.51;100.00;101892.56;5236098;28;20057;-69
2021/11/17 03:03:47;;;;;;;60.47;28.42;;;;;;;6.66;100.00;101896.16;5238874;28;20053;-69
2021/11/17 03:06:40;;;;;;;58.60;27.67;;;;;;;6.67;100.00;101897.03;5238012;28;20037;-69
2021/11/17 03:09:33;;;;;;;61.30;27.73;;;;;;;6.69;100.00;101892.56;5239184;28;20025;-69
2021/11/17 03:12:20;;;;;;;57.25;26.90;;;;;;;6.63;100.00;101890.25;5237499;28;20079;-69
2021/11/17 03:15:14;;;;;;;60.70;28.95;;;;;;;6.53;100.00;101895.13;5236558;28;20040;-69
2021/11/17 03:17:57;;;;;;;55.90;27.10;;;;;;;6.58;100.00;101883.53;5234718;28;20131;-69
2021/11/17 03:20:47;;;;;;;57.70;28.15;;;;;;;6.57;100.00;101891.44;5237603;28;20051;-69
2021/11/17 03:23:43;;;;;;;52.95;26.33;;;;;;;6.78;100.00;101897.28;5238457;28;20104;-69
2021/11/17 03:26:35;;;;;;;58.70;27.52;;;;;;;6.70;100.00;101908.09;5237104;28;20037;-69
2021/11/17 03:29:23;;;;;;;58.40;27.90;;;;;;;6.65;100.00;101914.47;5237290;28;20158;-69
2021/11/17 03:32:16;;;;;;;54.97;26.25;;;;;;;6.79;100.00;101912.00;5220333;28;20036;-69
2021/11/17 03:35:09;;;;;;;56.20;26.73;;;;;;;6.69;100.00;101905.56;5219490;28;20223;-69
2021/11/17 03:37:55;;;;;;;54.13;27.92;;;;;;;6.60;100.00;101896.50;5237487;28;20029;-68
2021/11/17 03:40:49;;;;;;;60.47;28.23;;;;;;;6.67;100.00;101876.19;5236880;28;20060;-69
2021/11/17 03:43:43;;;;;;;53.47;26.50;;;;;;;6.72;100.00;101868.97;5235125;28;20020;-68
2021/11/17 03:46:49;;;;;;;55.15;26.90;;;;;;;6.76;100.00;101862.69;5237540;28;20034;-68
2021/11/17 03:49:32;;;;;;;52.88;26.73;;;;;;;6.65;100.00;101875.41;5238997;28;20104;-69
2021/11/17 03:52:09;;;;;;;55.35;27.52;;;;;;;6.62;100.00;101893.78;5237414;28;20445;-68
2021/11/17 03:55:15;;;;;;;52.95;26.70;;;;;;;6.79;100.00;101897.22;5235178;28;20098;-68
2021/11/17 03:58:21;;;;;;;53.80;25.35;;;;;;;6.82;100.00;101888.41;5236680;28;20032;-69
2021/11/17 04:01:02;;;;;;;50.60;23.92;;;;;;;6.65;100.00;101878.84;5235712;28;20763;-68
2021/11/17 04:03:46;;;;;;;53.28;25.90;;;;;;;6.73;100.00;101879.28;5235421;28;20483;-69
2021/11/17 04:06:59;;;;;;;50.20;26.65;;;;;;;6.83;100.00;101882.28;5218349;28;20067;-69
2021/11/17 04:09:53;;;;;;;47.33;24.10;;;;;;;6.74;100.00;101870.59;5230963;28;20041;-69
2021/11/17 04:12:42;;;;;;;55.92;26.67;;;;;;;6.77;100.00;101885.19;5189565;28;20559;-69
2021/11/17 04:15:48;;;;;;;50.95;24.95;;;;;;;6.83;100.00;101892.69;5235409;28;20039;-68
2021/11/17 04:18:45;;;;;;;51.13;24.98;;;;;;;6.71;100.00;101902.00;5235183;28;20506;-68
2021/11/17 04:21:57;;;;;;;53.45;26.05;;;;;;;6.98;100.00;101896.25;5200814;28;20068;-69
2021/11/17 04:24:47;;;;;;;52.22;25.00;;;;;;;6.88;100.00;101906.31;5214864;28;20132;-69
2021/11/17 04:27:24;;;;;;;56.70;27.35;;;;;;;6.87;100.00;101898.59;5235065;28;20111;-69
2021/11/17 04:30:07;;;;;;;51.67;24.85;;;;;;;6.77;100.00;101900.81;5235994;28;20041;-69
2021/11/17 04:32:45;;;;;;;51.55;26.30;;;;;;;6.81;100.00;101905.78;5236070;28;20106;-69
2021/11/17 04:35:43;;;;;;;55.35;26.83;;;;;;;6.92;100.00;101909.59;5234233;28;20033;-69
2021/11/17 04:38:32;;;;;;;50.88;25.10;;;;;;;6.89;100.00;101907.16;5235238;28;20284;-68
2021/11/17 04:41:17;;;;;;;49.83;24.00;;;;;;;6.91;100.00;101907.91;5234273;28;20040;-69
2021/11/17 04:44:12;;;;;;;57.35;26.23;;;;;;;7.06;100.00;101905.34;5218672;28;20189;-68
2021/11/17 04:47:06;;;;;;;46.10;23.88;;;;;;;6.88;100.00;101901.09;5235818;28;20033;-68
2021/11/17 04:49:56;;;;;;;51.38;24.83;;;;;;;7.03;100.00;101892.47;5235131;28;20041;-69
2021/11/17 04:53:00;;;;;;;49.55;24.45;;;;;;;7.03;100.00;101886.41;5199022;28;1048587;-69
2021/11/17 04:55:52;;;;;;;52.78;25.98;;;;;;;6.92;100.00;101879.16;5219727;28;20029;-69
2021/11/17 04:59:03;;;;;;;53.45;25.85;;;;;;;7.03;100.00;101866.41;5234981;28;20095;-69
2021/11/17 05:02:12;;;;;;;51.38;26.13;;;;;;;7.03;100.00;101862.97;5136401;28;20364;-69
2021/11/17 05:05:05;;;;;;;60.00;27.98;;;;;;;6.98;100.00;101857.19;5235374;28;20320;-69
2021/11/17 05:08:05;;;;;;;53.63;25.77;;;;;;;6.97;100.00;101832.91;5235717;28;20076;-69
2021/11/17 05:10:51;;;;;;;48.85;25.38;;;;;;;6.92;100.00;101821.84;5229481;28;20318;-69
2021/11/17 05:13:41;;;;;;;54.08;26.42;;;;;;;6.98;100.00;101821.53;5233940;28;20417;-69
2021/11/17 05:16:34;;;;;;;50.05;25.33;;;;;;;6.92;100.00;101837.50;5236368;28;20491;-69
2021/11/17 05:19:43;;;;;;;51.53;25.50;;;;;;;6.97;100.00;101852.88;5235675;28;20208;-69
2021/11/17 05:22:29;;;;;;;57.15;26.27;;;;;;;6.91;100.00;101861.88;5236483;28;20315;-69
2021/11/17 05:25:12;;;;;;;56.28;26.23;;;;;;;6.88;100.00;101855.97;5235209;28;20035;-69
2021/11/17 05:27:43;;;;;;;57.35;26.48;;;;;;;6.79;100.00;101852.94;5235498;28;20530;-69
2021/11/17 05:30:37;;;;;;;55.05;25.48;;;;;;;6.88;100.00;101846.41;5217712;28;20029;-69
2021/11/17 05:33:21;;;;;;;49.38;25.25;;;;;;;6.85;100.00;101849.16;5236008;28;20021;-69
2021/11/17 05:36:12;;;;;;;49.55;24.50;;;;;;;6.88;100.00;101841.19;5233796;28;20040;-69
2021/11/17 05:38:55;;;;;;;54.17;25.90;;;;;;;6.86;100.00;101832.63;5236479;28;20033;-69
2021/11/17 05:41:44;;;;;;;51.72;25.88;;;;;;;6.85;100.00;101832.69;5236191;28;20091;-69
2021/11/17 05:44:22;;;;;;;46.88;25.23;;;;;;;6.82;100.00;101837.16;5236123;28;20029;-69
2021/11/17 05:47:06;;;;;;;54.88;27.13;;;;;;;6.78;100.00;101840.84;5238949;28;20028;-69
2021/11/17 05:50:22;;;;;;;54.60;27.20;;;;;;;6.97;100.00;101848.53;5218699;28;20037;-69
2021/11/17 05:53:21;;;;;;;53.08;25.80;;;;;;;6.90;100.00;101843.72;5235902;28;20072;-69
2021/11/17 05:56:11;;;;;;;54.85;26.65;;;;;;;6.96;100.00;101839.00;5238957;28;20086;-69
2021/11/17 05:59:06;;;;;;;49.22;25.58;;;;;;;6.86;100.00;101840.44;5239709;28;20064;-69
2021/11/17 06:01:46;;;;;;;55.92;26.98;;;;;;;6.88;100.00;101845.56;5239605;28;20124;-68
2021/11/17 06:04:17;;;;;;;55.88;26.40;;;;;;;6.74;100.00;101849.75;5238764;28;20082;-69
2021/11/17 06:06:49;;;;;;;50.23;25.97;;;;;;;6.79;100.00;101852.94;5240543;28;20691;-69
2021/11/17 06:09:20;;;;;;;54.20;26.57;;;;;;;6.79;100.00;101849.50;5238760;28;20029;-69
2021/11/17 06:12:03;;;;;;;57.23;26.13;;;;;;;6.84;100.00;101847.47;5239149;28;20288;-69
2021/11/17 06:14:42;;;;;;;51.75;26.98;;;;;;;6.85;100.00;101856.97;5236850;28;20016;-69
2021/11/17 06:17:21;;;;;;;53.50;26.77;;;;;;;6.93;100.00;101869.59;5240202;28;20063;-69
2021/11/17 06:19:55;;;;;;;51.08;25.83;;;;;;;6.88;100.00;101867.22;5240164;28;20017;-68
2021/11/17 06:22:29;;;;;;;57.88;27.58;;;;;;;6.92;100.00;101855.72;5238707;28;20029;-69
2021/11/17 06:25:07;;;;;;;52.90;26.52;;;;;;;6.91;100.00;101851.44;5237900;28;20102;-69
2021/11/17 06:27:42;;;;;;;52.85;28.13;;;;;;;6.87;100.00;101851.69;5237011;28;20028;-70
2021/11/17 06:30:18;;;;;;;49.33;26.02;;;;;;;6.93;100.00;101859.16;5240115;28;20048;-69
2021/11/17 06:32:51;;;;;;;57.38;27.73;;;;;;;6.91;100.00;101866.25;5238154;28;20052;-69
2021/11/17 06:35:23;;;;;;;53.22;27.02;;;;;;;6.92;100.00;101871.34;5236951;28;20037;-69
2021/11/17 06:37:56;;;;;;;56.33;27.08;;;;;;;6.94;100.00;101868.69;5240012;28;20343;-67
2021/11/17 06:40:29;;;;;;;59.58;27.33;;;;;;;6.99;100.00;101877.94;5239375;28;20414;-68
2021/11/17 06:43:01;;;;;;;53.38;26.60;;;;;;;6.93;100.00;101869.59;5237317;28;20025;-68
2021/11/17 06:45:40;;;;;;;53.97;27.07;;;;;;;7.17;100.00;101886.53;5238089;28;20037;-68
2021/11/17 06:48:12;;;;;;;53.17;26.05;;;;;;;7.07;100.00;101890.53;5238809;28;20036;-69
2021/11/17 06:50:46;;;;;;;50.20;25.27;;;;;;;7.15;100.00;101887.53;5238291;28;20084;-69
2021/11/17 06:53:18;;;;;;;56.28;27.67;;;;;;;7.09;100.00;101883.50;5235102;28;20366;-68
2021/11/17 06:55:50;;;;;;;50.70;25.67;;;;;;;7.13;100.00;101898.03;5238998;28;20065;-76
2021/11/17 06:58:22;;;;;;;49.63;26.63;;;;;;;7.18;100.00;101890.81;5232903;28;20128;-68
2021/11/17 07:00:55;;;;;;;51.33;26.10;;;;;;;7.20;100.00;101888.16;5238057;28;20494;-68
2021/11/17 07:03:27;;;;;;;53.22;26.90;;;;;;;7.23;100.00;101893.16;5234691;28;20104;-68
2021/11/17 07:05:58;;;;;;;53.70;26.45;;;;;;;7.26;100.00;101900.81;5238174;28;20085;-68
2021/11/17 07:08:29;;;;;;;55.97;27.08;;;;;;;7.28;100.00;101891.16;5237834;28;20028;-68
2021/11/17 07:11:00;;;;;;;49.53;27.08;;;;;;;7.32;100.00;101893.53;5238518;28;20106;-68
2021/11/17 07:13:32;;;;;;;46.83;24.85;;;;;;;7.36;100.00;101895.97;5235378;28;20064;-68
2021/11/17 07:16:03;;;;;;;49.47;27.25;;;;;;;7.34;100.00;101896.03;5237933;28;20031;-69
2021/11/17 07:18:35;;;;;;;48.78;25.95;;;;;;;7.38;100.00;101907.97;5234221;28;20041;-68
2021/11/17 07:21:08;;;;;;;45.95;24.77;;;;;;;7.39;100.00;101899.25;5238610;28;20086;-68
2021/11/17 07:23:40;;;;;;;51.40;26.40;;;;;;;7.43;100.00;101905.97;5236059;28;20132;-68
2021/11/17 07:26:11;;;;;;;49.28;26.60;;;;;;;7.40;100.00;101910.53;5236068;28;20026;-68
2021/11/17 07:28:42;;;;;;;52.05;24.83;;;;;;;7.44;100.00;101917.25;5240234;28;20107;-68
2021/11/17 07:31:14;;;;;;;46.00;24.70;;;;;;;7.47;100.00;101917.09;5225634;28;20029;-68
2021/11/17 07:33:45;;;;;;;50.60;26.02;;;;;;;7.49;100.00;101930.84;5234752;28;20514;-68
2021/11/17 07:36:17;;;;;;;46.42;25.67;;;;;;;7.49;100.00;101915.22;5237526;28;20036;-68
2021/11/17 07:38:49;;;;;;;46.45;25.38;;;;;;;7.53;100.00;101922.78;5233735;28;20115;-68
2021/11/17 07:41:20;;;;;;;47.70;24.45;;;;;;;7.51;100.00;101919.44;5234671;28;20033;-68
2021/11/17 07:43:51;;;;;;;48.05;25.13;;;;;;;7.55;100.00;101928.78;5235822;28;20013;-68
2021/11/17 07:46:23;;;;;;;48.10;24.42;;;;;;;7.60;100.00;101935.50;5236835;28;20055;-68
2021/11/17 07:48:56;;;;;;;50.60;26.02;;;;;;;7.61;100.00;101924.13;5236901;28;20032;-68
2021/11/17 07:51:28;;;;;;;48.85;25.50;;;;;;;7.62;100.00;101925.84;5236334;28;20291;-68
2021/11/17 07:53:59;;;;;;;48.60;24.55;;;;;;;7.64;100.00;101924.81;5235730;28;20457;-68
2021/11/17 07:56:33;;;;;;;54.63;27.20;;;;;;;7.67;100.00;101922.03;5235753;28;20039;-68
2021/11/17 07:59:07;;;;;;;48.60;24.73;;;;;;;7.71;100.00;101917.50;5236540;28;20540;-68
2021/11/17 08:01:39;;;;;;;50.25;27.05;;;;;;;7.70;100.00;101915.81;5237789;28;20029;-68
2021/11/17 08:04:14;;;;;;;57.58;28.05;;;;;;;7.66;100.00;101915.13;5236890;28;20059;-68
2021/11/17 08:06:46;;;;;;;58.08;27.67;;;;;;;7.69;100.00;101911.50;5229429;28;20325;-68
2021/11/17 08:09:18;;;;;;;52.33;26.23;;;;;;;7.76;100.00;101915.47;5236093;28;20390;-68
2021/11/17 08:11:49;;;;;;;55.50;27.70;;;;;;;7.73;100.00;101908.66;5236333;28;20033;-68
2021/11/17 08:14:20;;;;;;;53.67;26.50;;;;;;;7.79;100.00;101915.28;5235567;28;20022;-68
2021/11/17 08:16:51;;;;;;;54.13;27.77;;;;;;;7.82;100.00;101909.91;5236184;28;20021;-68
2021/11/17 08:19:23;;;;;;;51.28;26.73;;;;;;;7.85;100.00;101917.56;5235565;28;20024;-68
2021/11/17 08:21:55;;;;;;;58.28;29.15;;;;;;;7.88;100.00;101933.06;5236413;28;20033;-68
2021/11/17 08:24:26;;;;;;;58.47;29.05;;;;;;;7.89;100.00;101937.34;5234438;28;20060;-68
2021/11/17 08:26:57;;;;;;;58.03;29.70;;;;;;;7.96;100.00;101950.88;5235439;28;20324;-68
2021/11/17 08:29:28;;;;;;;63.80;29.73;;;;;;;7.95;100.00;101955.25;5236024;28;20276;-68
2021/11/17 08:32:00;;;;;;;63.88;29.65;;;;;;;7.99;100.00;101958.53;5235333;28;20044;-68
2021/11/17 08:34:31;;;;;;;64.05;28.95;;;;;;;8.00;100.00;101952.41;5236305;28;20036;-68
2021/11/17 08:37:03;;;;;;;70.97;31.17;;;;;;;8.03;100.00;101954.81;5237485;28;20414;-68
2021/11/17 08:39:35;;;;;;;63.38;29.60;;;;;;;8.04;100.00;101956.50;5234822;28;20310;-68
2021/11/17 08:42:08;;;;;;;65.68;29.50;;;;;;;8.06;100.00;101965.09;5235328;28;20075;-68
2021/11/17 08:44:40;;;;;;;64.82;29.02;;;;;;;8.09;100.00;101964.09;5234387;28;20037;-68
2021/11/17 08:47:14;;;;;;;68.30;32.25;;;;;;;8.11;100.00;101963.06;5237740;28;20417;-68
2021/11/17 08:49:46;;;;;;;65.50;29.75;;;;;;;8.11;100.00;101957.84;5234311;28;20037;-68
2021/11/17 08:52:17;;;;;;;72.10;31.70;;;;;;;8.14;100.00;101947.22;5237504;28;20548;-68
2021/11/17 08:54:49;;;;;;;74.47;33.75;;;;;;;8.16;100.00;101942.75;5215071;28;20132;-68
2021/11/17 08:57:20;;;;;;;77.30;31.27;;;;;;;8.16;100.00;101950.59;5214173;28;20022;-68
2021/11/17 08:59:53;;;;;;;71.03;30.95;;;;;;;8.22;100.00;101962.44;5215383;28;20483;-68
2021/11/17 09:02:24;;;;;;;78.15;34.10;;;;;;;8.24;100.00;101961.44;5216442;28;20060;-68
2021/11/17 09:04:55;;;;;;;69.72;31.75;;;;;;;8.25;100.00;101970.09;5213677;28;20026;-68
2021/11/17 09:07:27;;;;;;;79.07;32.38;;;;;;;8.29;100.00;101974.22;5214271;28;20030;-68
2021/11/17 09:09:58;;;;;;;72.50;33.17;;;;;;;8.27;100.00;101970.88;5215637;28;20026;-68
2021/11/17 09:12:29;;;;;;;78.30;34.03;;;;;;;8.31;100.00;101972.38;5215747;28;20734;-68
2021/11/17 09:15:01;;;;;;;80.25;35.15;;;;;;;8.34;100.00;101974.81;5213791;28;20444;-68
2021/11/17 09:17:32;;;;;;;78.32;34.22;;;;;;;8.39;100.00;101964.97;5213303;28;20407;-68
2021/11/17 09:20:05;;;;;;;71.20;31.58;;;;;;;8.49;100.00;101971.34;5213750;28;20068;-68
2021/11/17 09:22:36;;;;;;;79.72;35.08;;;;;;;8.50;100.00;101965.19;5217319;28;20108;-68
2021/11/17 09:25:10;;;;;;;77.13;33.83;;;;;;;8.65;100.00;101979.13;5216450;28;20619;-68
2021/11/17 09:27:42;;;;;;;76.78;31.70;;;;;;;8.70;100.00;101978.84;5217955;28;20090;-68
2021/11/17 09:30:18;;;;;;;75.07;34.08;;;;;;;8.73;100.00;101982.13;5215839;28;20026;-68
2021/11/17 09:32:53;;;;;;;82.15;33.42;;;;;;;8.78;100.00;101994.91;5218148;28;20034;-68
2021/11/17 09:35:27;;;;;;;74.50;33.03;;;;;;;8.81;100.00;101992.13;5218330;28;20037;-68
2021/11/17 09:37:59;;;;;;;84.00;35.50;;;;;;;8.84;100.00;101991.94;5219212;28;20507;-68
2021/11/17 09:40:37;;;;;;;82.72;34.13;;;;;;;8.88;100.00;101985.63;5219679;28;20053;-68
2021/11/17 09:43:12;;;;;;;76.93;34.90;;;;;;;8.90;100.00;101989.00;5217021;28;20024;-68
2021/11/17 09:45:46;;;;;;;89.45;36.33;;;;;;;8.94;100.00;101992.22;5218999;28;20526;-68
2021/11/17 09:48:26;;;;;;;80.50;36.83;;;;;;;9.02;100.00;101990.03;5219300;28;20021;-68
2021/11/17 09:51:13;;;;;;;77.93;35.38;;;;;;;9.10;100.00;101997.41;5220462;28;20030;-68
2021/11/17 09:53:49;;;;;;;84.70;37.33;;;;;;;9.09;100.00;102007.03;5227793;28;20049;-68
2021/11/17 09:56:30;;;;;;;83.50;37.35;;;;;;;9.11;100.00;102005.16;5229507;28;20708;-68
2021/11/17 09:59:06;;;;;;;80.80;35.28;;;;;;;9.11;100.00;102006.94;5239515;28;20036;-68
2021/11/17 10:01:53;;;;;;;78.78;33.63;;;;;;;9.20;100.00;102003.75;5233726;28;20021;-68
2021/11/17 10:04:31;;;;;;;71.32;32.13;;;;;;;9.16;100.00;102002.25;5238866;28;20244;-68
2021/11/17 10:07:24;;;;;;;66.75;31.15;;;;;;;9.18;100.00;102011.69;5236960;28;20439;-68
2021/11/17 10:13:25;;;;;;;65.85;28.67;;;;;;;9.36;100.00;102011.53;5240539;28;20592;-68
2021/11/17 10:15:56;;;;;;;65.78;31.45;;;;;;;9.22;100.00;102007.97;5239607;28;20141;-68
2021/11/17 10:18:36;;;;;;;78.05;34.75;;;;;;;9.31;100.00;102016.19;5238671;28;20029;-68
2021/11/17 10:21:13;;;;;;;76.53;34.45;;;;;;;9.32;100.00;102018.72;5238359;28;20070;-68
2021/11/17 10:23:58;;;;;;;78.05;35.40;;;;;;;9.42;100.00;102011.13;5237728;28;20642;-68
2021/11/17 10:26:29;;;;;;;74.35;33.85;;;;;;;9.32;100.00;102007.38;5240486;28;20103;-68
2021/11/17 10:29:07;;;;;;;86.60;38.30;;;;;;;9.38;100.00;102013.09;5238841;28;20958;-68
2021/11/17 10:31:55;;;;;;;88.38;39.28;;;;;;;9.53;100.00;102015.72;5238047;28;20025;-68
2021/11/17 10:34:39;;;;;;;89.90;38.47;;;;;;;9.42;100.00;102004.13;5237903;28;20091;-68
2021/11/17 10:37:22;;;;;;;89.55;38.58;;;;;;;9.49;100.00;102002.81;5238139;28;20228;-68
2021/11/17 10:39:54;;;;;;;95.13;40.28;;;;;;;9.54;100.00;102001.69;5237801;28;20391;-68
2021/11/17 10:42:31;;;;;;;90.50;39.22;;;;;;;9.63;100.00;102004.59;5238593;28;20029;-68
2021/11/17 10:45:11;;;;;;;92.70;40.45;;;;;;;9.65;100.00;102010.53;5237800;28;20033;-68
2021/11/17 10:47:45;;;;;;;100.22;40.72;;;;;;;9.57;100.00;102010.19;5238417;28;20041;-68
2021/11/17 10:50:22;;;;;;;101.35;41.13;;;;;;;9.69;100.00;102012.03;5238431;28;20087;-68
2021/11/17 10:53:14;;;;;;;95.13;41.75;;;;;;;9.89;100.00;102018.66;5238581;28;20069;-68
2021/11/17 10:55:48;;;;;;;92.35;43.80;;;;;;;9.79;100.00;102017.53;5236700;28;20055;-68
2021/11/17 10:58:24;;;;;;;96.90;43.78;;;;;;;9.76;100.00;102015.13;5237321;28;20425;-68
2021/11/17 11:00:59;;;;;;;95.20;42.15;;;;;;;9.69;100.00;102016.44;5238656;28;20021;-68
2021/11/17 11:03:35;;;;;;;92.25;41.90;;;;;;;9.78;100.00;102025.50;5238392;28;20472;-68
2021/11/17 11:06:21;;;;;;;96.63;43.10;;;;;;;9.83;100.00;102033.91;5237272;28;20031;-68
2021/11/17 11:09:18;;;;;;;90.13;41.95;;;;;;;9.98;100.00;102030.31;5238582;28;20025;-68
2021/11/17 11:11:52;;;;;;;98.75;43.35;;;;;;;9.82;100.00;102038.28;5224836;28;20324;-68
2021/11/17 11:14:37;;;;;;;96.28;43.03;;;;;;;9.97;100.00;102036.50;5238298;28;20403;-68
2021/11/17 11:17:19;;;;;;;95.60;43.47;;;;;;;9.99;100.00;102042.47;5237155;28;20044;-68
2021/11/17 11:19:52;;;;;;;93.38;44.17;;;;;;;9.90;100.00;102041.28;5237041;28;20087;-68
2021/11/17 11:22:24;;;;;;;99.10;46.38;;;;;;;9.90;100.00;102043.88;5235230;28;20537;-68
2021/11/17 11:24:58;;;;;;;94.93;46.13;;;;;;;10.05;100.00;102049.09;5237214;28;20037;-68
2021/11/17 11:27:35;;;;;;;95.55;44.97;;;;;;;10.14;100.00;102038.03;5237702;28;20499;-68
2021/11/17 11:30:06;;;;;;;95.30;45.75;;;;;;;10.13;100.00;102031.13;5237287;28;20055;-68
2021/11/17 11:32:38;;;;;;;93.97;44.22;;;;;;;10.16;100.00;102029.16;5237843;28;20402;-68
2021/11/17 11:35:09;;;;;;;94.03;45.10;;;;;;;10.22;100.00;102030.53;5238791;28;20106;-68
2021/11/17 11:37:40;;;;;;;92.20;44.80;;;;;;;10.26;100.00;102036.44;5236952;28;20797;-68
2021/11/17 11:40:29;;;;;;;92.70;46.60;;;;;;;10.50;100.00;102034.03;5236441;28;20426;-68
2021/11/17 11:43:03;;;;;;;89.72;43.58;;;;;;;10.45;100.00;102035.16;5236681;28;20035;-68
2021/11/17 11:45:39;;;;;;;100.93;43.80;;;;;;;10.48;100.00;102042.81;5236004;28;20028;-68
2021/11/17 11:48:15;;;;;;;94.35;46.33;;;;;;;10.50;100.00;102040.09;5236734;28;20033;-68
2021/11/17 11:50:53;;;;;;;91.97;43.75;;;;;;;10.56;100.00;102041.47;5237951;28;20021;-69
2021/11/17 11:53:57;;;;;;;91.18;43.25;;;;;;;10.74;100.00;102034.19;5238499;28;20515;-69
2021/11/17 11:56:43;;;;;;;97.47;44.58;;;;;;;10.78;100.00;102035.66;5238665;28;20036;-69
2021/11/17 11:59:28;;;;;;;92.05;44.80;;;;;;;10.86;100.00;102039.44;5221459;28;20033;-69
2021/11/17 12:02:09;;;;;;;94.05;45.30;;;;;;;10.79;100.00;102035.53;5236796;28;20029;-69
2021/11/17 12:04:48;;;;;;;102.00;47.13;;;;;;;10.76;100.00;102040.13;5238370;28;20034;-69
2021/11/17 12:07:48;;;;;;;96.30;45.35;;;;;;;10.92;100.00;102049.50;5238703;28;20083;-69
2021/11/17 12:10:19;;;;;;;87.75;44.72;;;;;;;10.79;100.00;102046.03;5229828;28;20041;-69
2021/11/17 12:12:50;;;;;;;93.17;44.03;;;;;;;10.82;100.00;102040.56;5236608;28;20037;-69
2021/11/17 12:15:35;;;;;;;91.75;43.70;;;;;;;10.96;100.00;102045.75;5236839;28;20315;-70
2021/11/17 12:18:21;;;;;;;92.25;43.75;;;;;;;11.00;100.00;102050.78;5237869;28;20067;-74
2021/11/17 12:20:58;;;;;;;87.50;42.80;;;;;;;10.95;100.00;102045.84;5234101;28;20021;-69
2021/11/17 12:23:37;;;;;;;86.15;42.92;;;;;;;10.87;100.00;102048.13;5236530;28;20125;-70
2021/11/17 12:26:17;;;;;;;80.60;41.00;;;;;;;10.88;100.00;102044.59;5235212;28;20152;-70
2021/11/17 12:29:06;;;;;;;78.18;40.28;;;;;;;10.95;100.00;102046.69;5237732;28;20059;-70
2021/11/17 12:31:51;;;;;;;84.25;43.10;;;;;;;11.00;100.00;102046.38;5234651;28;20029;-70
2021/11/17 12:34:27;;;;;;;82.38;41.97;;;;;;;10.94;100.00;102044.16;5236443;28;20112;-70
2021/11/17 12:37:30;;;;;;;73.68;38.97;;;;;;;11.14;100.00;102046.28;5235522;28;20048;-69
2021/11/17 12:40:12;;;;;;;77.45;39.92;;;;;;;11.09;100.00;102040.50;5236424;28;20368;-70
2021/11/17 12:42:54;;;;;;;76.88;41.00;;;;;;;11.09;100.00;102035.25;5238791;28;20021;-70
2021/11/17 12:45:45;;;;;;;75.53;39.10;;;;;;;11.13;100.00;102044.59;5236243;28;20409;-70
2021/11/17 12:48:26;;;;;;;72.93;39.33;;;;;;;11.26;100.00;102038.53;5235194;28;20090;-70
2021/11/17 12:51:04;;;;;;;81.07;39.67;;;;;;;11.19;100.00;102038.09;5235705;28;20462;-70
2021/11/17 12:53:38;;;;;;;78.25;40.25;;;;;;;11.28;100.00;102052.38;5236491;28;20045;-70
2021/11/17 12:56:29;;;;;;;75.82;39.55;;;;;;;11.36;100.00;102050.03;5234697;28;20120;-70
2021/11/17 12:59:08;;;;;;;75.15;39.15;;;;;;;11.17;100.00;102050.47;5237205;28;20104;-70
2021/11/17 13:01:43;;;;;;;70.95;37.90;;;;;;;11.13;100.00;102044.59;5235787;28;20040;-70
2021/11/17 13:04:14;;;;;;;67.80;38.03;;;;;;;11.09;100.00;102048.38;5238164;28;20080;-70
2021/11/17 13:06:56;;;;;;;77.37;40.37;;;;;;;11.24;100.00;102049.09;5238959;28;20111;-70
2021/11/17 13:09:31;;;;;;;70.38;38.22;;;;;;;11.17;100.00;102048.72;5239992;28;20095;-70
2021/11/17 13:12:11;;;;;;;68.43;38.22;;;;;;;11.24;100.00;102061.38;5241011;28;20090;-70
2021/11/17 13:14:43;;;;;;;64.47;36.67;;;;;;;11.27;100.00;102048.91;5240772;28;20442;-70
2021/11/17 13:17:33;;;;;;;70.07;38.17;;;;;;;11.39;100.00;102049.84;5239539;28;20033;-70
2021/11/17 13:20:43;;;;;;;69.65;37.47;;;;;;;11.56;100.00;102053.94;5240343;28;20025;-70
2021/11/17 13:23:15;;;;;;;67.32;35.72;;;;;;;11.34;100.00;102052.78;5239752;28;20028;-70
2021/11/17 13:26:26;;;;;;;67.05;36.97;;;;;;;11.60;100.00;102051.00;5237956;28;20074;-70
2021/11/17 13:29:24;;;;;;;56.42;32.80;;;;;;;11.66;100.00;102045.28;5238983;28;20516;-70
2021/11/17 13:32:08;;;;;;;61.58;33.20;;;;;;;11.68;100.00;102042.56;5238223;28;20080;-70
2021/11/17 13:34:41;;;;;;;;;;;;;;;12.04;100.00;102046.19;5238805;28;20041;-70
2021/11/17 13:37:36;;;;;;;59.20;32.80;;;;;;;11.85;100.00;102046.66;5239189;28;19919;-70
2021/11/17 13:40:09;;;;;;;62.55;33.95;;;;;;;11.75;100.00;102049.06;5239237;28;20032;-70
2021/11/17 13:42:40;;;;;;;59.08;31.73;;;;;;;11.71;100.00;102044.16;5239941;28;20391;-70
2021/11/17 13:45:19;;;;;;;58.13;29.95;;;;;;;11.84;100.00;102056.31;5241296;28;20028;-70
2021/11/17 13:47:51;;;;;;;53.10;27.08;;;;;;;11.80;100.00;102057.47;5241421;28;20041;-70
2021/11/17 13:50:28;;;;;;;50.63;27.85;;;;;;;11.82;100.00;102059.97;5240153;28;20033;-70
2021/11/17 13:53:01;;;;;;;50.38;23.63;;;;;;;11.73;100.00;102058.84;5237082;28;21763;-70
2021/11/17 13:55:36;;;;;;;46.45;24.27;;;;;;;11.78;100.00;102069.88;5238789;28;20114;-70
2021/11/17 13:58:08;;;;;;;35.88;19.05;;;;;;;11.78;100.00;102074.25;5239442;28;20033;-70
2021/11/17 14:00:42;;;;;;;36.30;18.55;;;;;;;11.77;100.00;102083.09;5236703;28;20617;-70
2021/11/17 14:03:13;;;;;;;38.10;19.77;;;;;;;11.67;100.00;102086.38;5236985;28;20131;-70
2021/11/17 14:05:46;;;;;;;35.25;17.42;;;;;;;11.71;100.00;102089.63;5239670;28;20116;-70
2021/11/17 14:08:19;;;;;;;33.00;12.82;;;;;;;11.71;100.00;102094.88;5240239;28;20479;-70
2021/11/17 14:10:50;;;;;;;24.70;10.48;;;;;;;11.66;100.00;102096.97;5239325;28;20075;-70
2021/11/17 14:13:21;;;;;;;22.60;7.30;;;;;;;11.60;100.00;102082.50;5239185;28;20021;-70
2021/11/17 14:15:54;;;;;;;15.27;5.53;;;;;;;11.57;100.00;102084.47;5239649;28;20441;-70
2021/11/17 14:18:26;;;;;;;18.70;5.43;;;;;;;11.59;100.00;102088.69;5237562;28;20120;-70
2021/11/17 14:21:00;;;;;;;19.00;4.82;;;;;;;11.57;100.00;102079.22;5238487;28;20029;-70
2021/11/17 14:23:31;;;;;;;23.02;4.97;;;;;;;11.57;100.00;102087.94;5238217;28;20531;-70
2021/11/17 14:26:07;;;;;;;17.35;3.95;;;;;;;11.61;100.00;102092.03;5238977;28;20029;-70
2021/11/17 14:28:43;;;;;;;22.40;4.22;;;;;;;11.71;100.00;102092.25;5237746;28;20179;-70
2021/11/17 14:31:21;;;;;;;18.15;4.15;;;;;;;11.77;100.00;102094.44;5238379;28;20388;-70
2021/11/17 14:33:57;;;;;;;14.43;3.63;;;;;;;11.75;100.00;102098.97;5239210;28;20044;-70
2021/11/17 14:36:35;;;;;;;12.15;3.83;;;;;;;11.87;100.00;102092.03;5237483;28;20425;-70